sensor_id;sensor_type;location;lat;lon;timestamp;temperature;humidity
11122;DHT22;5615;49.304;10.576;2023-05-23T00:01:04;17.40;99.90
11122;DHT22;5615;49.304;10.576;2023-05-23T00:03:32;17.40;99.90
11122;DHT22;5615;49.304;10.576;2023-05-23T00:06:00;17.40;99.90
11122;DHT22;5615;49.304;10.576;2023-05-23T00:08:27;17.30;99.90
11122;DHT22;5615;49.304;10.576;2023-05-23T00:10:53;17.30;99.90
11122;DHT22;5615;49.304;10.576;2023-05-23T00:13:20;17.20;99.90
11122;DHT22;5615;49.304;10.576;2023-05-23T00:15:48;17.20;99.90
11122;DHT22;5615;49.304;10.576;2023-05-23T00:18:15;17.20;99.90
11122;DHT22;5615;49.304;10.576;2023-05-23T00:20:42;17.00;99.90
11122;DHT22;5615;49.304;10.576;2023-05-23T00:23:10;17.00;99.90
11122;DHT22;5615;49.304;10.576;2023-05-23T00:25:43;16.80;99.90
11122;DHT22;5615;49.304;10.576;2023-05-23T00:28:13;16.60;99.90
11122;DHT22;5615;49.304;10.576;2023-05-23T00:30:40;16.60;99.90
11122;DHT22;5615;49.304;10.576;2023-05-23T00:33:08;16.50;99.90
11122;DHT22;5615;49.304;10.576;2023-05-23T00:35:34;16.40;99.90
11122;DHT22;5615;49.304;10.576;2023-05-23T00:38:01;16.40;99.90
11122;DHT22;5615;49.304;10.576;2023-05-23T00:40:27;16.40;99.90
11122;DHT22;5615;49.304;10.576;2023-05-23T00:42:54;16.50;99.90
11122;DHT22;5615;49.304;10.576;2023-05-23T00:45:21;16.60;99.90
11122;DHT22;5615;49.304;10.576;2023-05-23T00:47:48;16.60;99.90
11122;DHT22;5615;49.304;10.576;2023-05-23T00:50:17;16.50;99.90
11122;DHT22;5615;49.304;10.576;2023-05-23T00:52:45;16.30;99.90
11122;DHT22;5615;49.304;10.576;2023-05-23T00:55:13;16.20;99.90
11122;DHT22;5615;49.304;10.576;2023-05-23T00:57:40;16.10;99.90
11122;DHT22;5615;49.304;10.576;2023-05-23T01:00:10;16.00;99.90
11122;DHT22;5615;49.304;10.576;2023-05-23T01:02:39;16.00;99.90
11122;DHT22;5615;49.304;10.576;2023-05-23T01:05:08;16.10;99.90
11122;DHT22;5615;49.304;10.576;2023-05-23T01:07:36;16.00;99.90
11122;DHT22;5615;49.304;10.576;2023-05-23T01:10:04;15.80;99.90
11122;DHT22;5615;49.304;10.576;2023-05-23T01:12:38;15.70;99.90
11122;DHT22;5615;49.304;10.576;2023-05-23T01:15:09;15.70;99.90
11122;DHT22;5615;49.304;10.576;2023-05-23T01:17:41;15.60;99.90
11122;DHT22;5615;49.304;10.576;2023-05-23T01:20:11;15.70;99.90
11122;DHT22;5615;49.304;10.576;2023-05-23T01:23:05;15.80;99.90
11122;DHT22;5615;49.304;10.576;2023-05-23T01:25:47;15.70;99.90
11122;DHT22;5615;49.304;10.576;2023-05-23T01:28:28;15.50;99.90
11122;DHT22;5615;49.304;10.576;2023-05-23T01:30:57;15.50;99.90
11122;DHT22;5615;49.304;10.576;2023-05-23T01:33:24;15.40;99.90
11122;DHT22;5615;49.304;10.576;2023-05-23T01:35:52;15.40;99.90
11122;DHT22;5615;49.304;10.576;2023-05-23T01:38:18;15.40;99.90
11122;DHT22;5615;49.304;10.576;2023-05-23T01:40:45;15.40;99.90
11122;DHT22;5615;49.304;10.576;2023-05-23T01:43:12;15.40;99.90
11122;DHT22;5615;49.304;10.576;2023-05-23T01:45:40;15.60;99.90
11122;DHT22;5615;49.304;10.576;2023-05-23T01:48:08;15.60;99.90
11122;DHT22;5615;49.304;10.576;2023-05-23T01:50:36;15.60;99.90
11122;DHT22;5615;49.304;10.576;2023-05-23T01:53:03;15.60;99.90
11122;DHT22;5615;49.304;10.576;2023-05-23T01:55:30;15.50;99.90
11122;DHT22;5615;49.304;10.576;2023-05-23T01:57:58;15.40;99.90
11122;DHT22;5615;49.304;10.576;2023-05-23T02:00:25;15.20;99.90
11122;DHT22;5615;49.304;10.576;2023-05-23T02:02:53;15.10;99.90
11122;DHT22;5615;49.304;10.576;2023-05-23T02:05:19;15.10;99.90
11122;DHT22;5615;49.304;10.576;2023-05-23T02:07:46;15.10;99.90
11122;DHT22;5615;49.304;10.576;2023-05-23T02:10:13;15.10;99.90
11122;DHT22;5615;49.304;10.576;2023-05-23T02:12:39;15.00;99.90
11122;DHT22;5615;49.304;10.576;2023-05-23T02:15:07;15.00;99.90
11122;DHT22;5615;49.304;10.576;2023-05-23T02:17:34;15.00;99.90
11122;DHT22;5615;49.304;10.576;2023-05-23T02:20:02;14.90;99.90
11122;DHT22;5615;49.304;10.576;2023-05-23T02:22:29;14.90;99.90
11122;DHT22;5615;49.304;10.576;2023-05-23T02:24:56;14.90;99.90
11122;DHT22;5615;49.304;10.576;2023-05-23T02:27:22;14.80;99.90
11122;DHT22;5615;49.304;10.576;2023-05-23T02:29:49;14.70;99.90
11122;DHT22;5615;49.304;10.576;2023-05-23T02:32:16;14.70;99.90
11122;DHT22;5615;49.304;10.576;2023-05-23T02:34:42;14.60;99.90
11122;DHT22;5615;49.304;10.576;2023-05-23T02:37:12;14.60;99.90
11122;DHT22;5615;49.304;10.576;2023-05-23T02:39:38;14.60;99.90
11122;DHT22;5615;49.304;10.576;2023-05-23T02:42:05;14.60;99.90
11122;DHT22;5615;49.304;10.576;2023-05-23T02:44:32;14.60;99.90
11122;DHT22;5615;49.304;10.576;2023-05-23T02:46:58;14.60;99.90
11122;DHT22;5615;49.304;10.576;2023-05-23T02:49:25;14.60;99.90
11122;DHT22;5615;49.304;10.576;2023-05-23T02:51:52;14.60;99.90
11122;DHT22;5615;49.304;10.576;2023-05-23T02:54:20;14.50;99.90
11122;DHT22;5615;49.304;10.576;2023-05-23T02:56:46;14.60;99.90
11122;DHT22;5615;49.304;10.576;2023-05-23T02:59:14;14.60;99.90
11122;DHT22;5615;49.304;10.576;2023-05-23T03:01:42;14.60;99.90
11122;DHT22;5615;49.304;10.576;2023-05-23T03:04:08;14.50;99.90
11122;DHT22;5615;49.304;10.576;2023-05-23T03:06:35;14.50;99.90
11122;DHT22;5615;49.304;10.576;2023-05-23T03:09:02;14.50;99.90
11122;DHT22;5615;49.304;10.576;2023-05-23T03:11:30;14.50;99.90
11122;DHT22;5615;49.304;10.576;2023-05-23T03:13:57;14.50;99.90
11122;DHT22;5615;49.304;10.576;2023-05-23T03:16:23;14.50;99.90
11122;DHT22;5615;49.304;10.576;2023-05-23T03:18:50;14.60;99.90
11122;DHT22;5615;49.304;10.576;2023-05-23T03:21:16;14.60;99.90
11122;DHT22;5615;49.304;10.576;2023-05-23T03:23:43;14.60;99.90
11122;DHT22;5615;49.304;10.576;2023-05-23T03:26:10;14.70;99.90
11122;DHT22;5615;49.304;10.576;2023-05-23T03:28:38;14.80;99.90
11122;DHT22;5615;49.304;10.576;2023-05-23T03:31:05;14.80;99.90
11122;DHT22;5615;49.304;10.576;2023-05-23T03:33:31;14.70;99.90
11122;DHT22;5615;49.304;10.576;2023-05-23T03:35:58;14.70;99.90
11122;DHT22;5615;49.304;10.576;2023-05-23T03:38:26;14.70;99.90
11122;DHT22;5615;49.304;10.576;2023-05-23T03:40:52;14.80;99.90
11122;DHT22;5615;49.304;10.576;2023-05-23T03:43:19;14.80;99.90
11122;DHT22;5615;49.304;10.576;2023-05-23T03:45:47;14.80;99.90
11122;DHT22;5615;49.304;10.576;2023-05-23T03:48:13;14.80;99.90
11122;DHT22;5615;49.304;10.576;2023-05-23T03:50:40;15.00;99.90
11122;DHT22;5615;49.304;10.576;2023-05-23T03:53:07;15.10;99.90
11122;DHT22;5615;49.304;10.576;2023-05-23T03:55:33;15.10;99.90
11122;DHT22;5615;49.304;10.576;2023-05-23T03:58:00;15.20;99.90
11122;DHT22;5615;49.304;10.576;2023-05-23T04:00:27;15.20;99.90
11122;DHT22;5615;49.304;10.576;2023-05-23T04:02:54;15.20;99.90
11122;DHT22;5615;49.304;10.576;2023-05-23T04:05:21;15.30;99.90
11122;DHT22;5615;49.304;10.576;2023-05-23T04:07:48;15.40;99.90
11122;DHT22;5615;49.304;10.576;2023-05-23T04:10:15;15.40;99.90
11122;DHT22;5615;49.304;10.576;2023-05-23T04:12:42;15.50;99.90
11122;DHT22;5615;49.304;10.576;2023-05-23T04:15:09;15.50;99.90
11122;DHT22;5615;49.304;10.576;2023-05-23T04:17:36;15.60;99.90
11122;DHT22;5615;49.304;10.576;2023-05-23T04:20:06;15.70;99.90
11122;DHT22;5615;49.304;10.576;2023-05-23T04:22:33;15.70;99.90
11122;DHT22;5615;49.304;10.576;2023-05-23T04:25:00;15.70;99.90
11122;DHT22;5615;49.304;10.576;2023-05-23T04:27:27;15.70;99.90
11122;DHT22;5615;49.304;10.576;2023-05-23T04:29:54;15.80;99.90
11122;DHT22;5615;49.304;10.576;2023-05-23T04:32:22;15.80;99.90
11122;DHT22;5615;49.304;10.576;2023-05-23T04:34:49;15.80;99.90
11122;DHT22;5615;49.304;10.576;2023-05-23T04:37:17;15.70;99.90
11122;DHT22;5615;49.304;10.576;2023-05-23T04:39:46;15.60;99.90
11122;DHT22;5615;49.304;10.576;2023-05-23T04:42:13;15.70;99.90
11122;DHT22;5615;49.304;10.576;2023-05-23T04:44:40;15.80;99.90
11122;DHT22;5615;49.304;10.576;2023-05-23T04:47:07;15.80;99.90
11122;DHT22;5615;49.304;10.576;2023-05-23T04:49:35;15.90;99.90
11122;DHT22;5615;49.304;10.576;2023-05-23T04:52:01;15.80;99.90
11122;DHT22;5615;49.304;10.576;2023-05-23T04:54:29;15.80;99.90
11122;DHT22;5615;49.304;10.576;2023-05-23T04:56:57;15.90;99.90
11122;DHT22;5615;49.304;10.576;2023-05-23T04:59:24;15.90;99.90
11122;DHT22;5615;49.304;10.576;2023-05-23T05:01:51;16.00;99.90
11122;DHT22;5615;49.304;10.576;2023-05-23T05:04:17;16.10;99.90
11122;DHT22;5615;49.304;10.576;2023-05-23T05:06:44;16.10;99.90
11122;DHT22;5615;49.304;10.576;2023-05-23T05:09:12;16.10;99.90
11122;DHT22;5615;49.304;10.576;2023-05-23T05:11:40;16.20;99.90
11122;DHT22;5615;49.304;10.576;2023-05-23T05:14:07;16.20;99.90
11122;DHT22;5615;49.304;10.576;2023-05-23T05:16:33;16.30;99.90
11122;DHT22;5615;49.304;10.576;2023-05-23T05:19:00;16.30;99.90
11122;DHT22;5615;49.304;10.576;2023-05-23T05:21:27;16.40;99.90
11122;DHT22;5615;49.304;10.576;2023-05-23T05:23:53;16.50;99.90
11122;DHT22;5615;49.304;10.576;2023-05-23T05:26:20;16.40;99.90
11122;DHT22;5615;49.304;10.576;2023-05-23T05:28:49;16.40;99.90
11122;DHT22;5615;49.304;10.576;2023-05-23T05:31:16;16.50;99.90
11122;DHT22;5615;49.304;10.576;2023-05-23T05:33:43;16.60;99.90
11122;DHT22;5615;49.304;10.576;2023-05-23T05:36:10;16.70;99.90
11122;DHT22;5615;49.304;10.576;2023-05-23T05:38:37;16.60;99.90
11122;DHT22;5615;49.304;10.576;2023-05-23T05:41:04;16.70;99.90
11122;DHT22;5615;49.304;10.576;2023-05-23T05:43:30;16.70;99.90
11122;DHT22;5615;49.304;10.576;2023-05-23T05:45:58;16.60;99.90
11122;DHT22;5615;49.304;10.576;2023-05-23T05:48:25;16.60;99.90
11122;DHT22;5615;49.304;10.576;2023-05-23T05:50:51;16.60;99.90
11122;DHT22;5615;49.304;10.576;2023-05-23T05:53:18;16.60;99.90
11122;DHT22;5615;49.304;10.576;2023-05-23T05:55:45;16.90;99.90
11122;DHT22;5615;49.304;10.576;2023-05-23T05:58:11;17.00;99.90
11122;DHT22;5615;49.304;10.576;2023-05-23T06:00:39;17.00;99.90
11122;DHT22;5615;49.304;10.576;2023-05-23T06:03:09;17.00;99.90
11122;DHT22;5615;49.304;10.576;2023-05-23T06:05:35;17.20;99.90
11122;DHT22;5615;49.304;10.576;2023-05-23T06:08:03;17.30;99.90
11122;DHT22;5615;49.304;10.576;2023-05-23T06:10:30;17.30;99.90
11122;DHT22;5615;49.304;10.576;2023-05-23T06:12:57;17.30;99.90
11122;DHT22;5615;49.304;10.576;2023-05-23T06:15:24;17.40;99.90
11122;DHT22;5615;49.304;10.576;2023-05-23T06:17:50;17.50;99.90
11122;DHT22;5615;49.304;10.576;2023-05-23T06:20:18;17.60;99.90
11122;DHT22;5615;49.304;10.576;2023-05-23T06:22:45;17.60;99.90
11122;DHT22;5615;49.304;10.576;2023-05-23T06:25:12;17.50;99.90
11122;DHT22;5615;49.304;10.576;2023-05-23T06:27:38;17.60;99.90
11122;DHT22;5615;49.304;10.576;2023-05-23T06:30:06;17.60;99.90
11122;DHT22;5615;49.304;10.576;2023-05-23T06:32:33;17.80;99.90
11122;DHT22;5615;49.304;10.576;2023-05-23T06:35:00;17.80;99.90
11122;DHT22;5615;49.304;10.576;2023-05-23T06:37:27;18.00;99.90
11122;DHT22;5615;49.304;10.576;2023-05-23T06:39:54;17.90;99.90
11122;DHT22;5615;49.304;10.576;2023-05-23T06:42:21;17.80;99.90
11122;DHT22;5615;49.304;10.576;2023-05-23T06:44:47;17.80;99.90
11122;DHT22;5615;49.304;10.576;2023-05-23T06:47:14;18.10;99.90
11122;DHT22;5615;49.304;10.576;2023-05-23T06:49:40;18.10;99.90
11122;DHT22;5615;49.304;10.576;2023-05-23T06:52:07;18.40;99.90
11122;DHT22;5615;49.304;10.576;2023-05-23T06:54:35;18.20;99.90
11122;DHT22;5615;49.304;10.576;2023-05-23T06:57:02;18.10;99.90
11122;DHT22;5615;49.304;10.576;2023-05-23T06:59:29;18.00;99.90
11122;DHT22;5615;49.304;10.576;2023-05-23T07:01:55;18.00;99.90
11122;DHT22;5615;49.304;10.576;2023-05-23T07:04:22;18.00;99.90
11122;DHT22;5615;49.304;10.576;2023-05-23T07:06:49;18.20;99.90
11122;DHT22;5615;49.304;10.576;2023-05-23T07:09:17;18.10;99.90
11122;DHT22;5615;49.304;10.576;2023-05-23T07:11:44;18.00;99.90
11122;DHT22;5615;49.304;10.576;2023-05-23T07:14:11;17.90;99.90
11122;DHT22;5615;49.304;10.576;2023-05-23T07:16:38;18.10;99.90
11122;DHT22;5615;49.304;10.576;2023-05-23T07:19:04;17.90;99.90
11122;DHT22;5615;49.304;10.576;2023-05-23T07:21:31;18.00;99.90
11122;DHT22;5615;49.304;10.576;2023-05-23T07:23:57;17.90;99.90
11122;DHT22;5615;49.304;10.576;2023-05-23T07:26:24;17.60;99.90
11122;DHT22;5615;49.304;10.576;2023-05-23T07:28:53;17.50;99.90
11122;DHT22;5615;49.304;10.576;2023-05-23T07:31:20;17.50;99.90
11122;DHT22;5615;49.304;10.576;2023-05-23T07:33:46;17.60;99.90
11122;DHT22;5615;49.304;10.576;2023-05-23T07:36:13;17.40;99.90
11122;DHT22;5615;49.304;10.576;2023-05-23T07:38:40;17.40;99.90
11122;DHT22;5615;49.304;10.576;2023-05-23T07:41:07;17.40;99.90
11122;DHT22;5615;49.304;10.576;2023-05-23T07:43:33;17.50;99.90
11122;DHT22;5615;49.304;10.576;2023-05-23T07:46:01;17.60;99.90
11122;DHT22;5615;49.304;10.576;2023-05-23T07:48:28;17.90;99.90
11122;DHT22;5615;49.304;10.576;2023-05-23T07:50:56;18.30;99.90
11122;DHT22;5615;49.304;10.576;2023-05-23T07:53:22;18.60;99.90
11122;DHT22;5615;49.304;10.576;2023-05-23T07:55:49;18.70;99.90
11122;DHT22;5615;49.304;10.576;2023-05-23T07:58:16;18.60;99.90
11122;DHT22;5615;49.304;10.576;2023-05-23T08:00:43;18.20;99.90
11122;DHT22;5615;49.304;10.576;2023-05-23T08:03:11;18.20;99.90
11122;DHT22;5615;49.304;10.576;2023-05-23T08:05:38;18.20;99.90
11122;DHT22;5615;49.304;10.576;2023-05-23T08:08:05;18.20;99.90
11122;DHT22;5615;49.304;10.576;2023-05-23T08:10:31;18.30;99.90
11122;DHT22;5615;49.304;10.576;2023-05-23T08:12:58;18.30;99.90
11122;DHT22;5615;49.304;10.576;2023-05-23T08:15:28;18.80;99.90
11122;DHT22;5615;49.304;10.576;2023-05-23T08:17:55;19.20;99.90
11122;DHT22;5615;49.304;10.576;2023-05-23T08:20:24;19.40;99.90
11122;DHT22;5615;49.304;10.576;2023-05-23T08:22:56;19.60;99.90
11122;DHT22;5615;49.304;10.576;2023-05-23T08:25:23;19.40;99.90
11122;DHT22;5615;49.304;10.576;2023-05-23T08:27:49;19.20;99.90
11122;DHT22;5615;49.304;10.576;2023-05-23T08:30:16;18.90;99.90
11122;DHT22;5615;49.304;10.576;2023-05-23T08:32:43;18.60;99.90
11122;DHT22;5615;49.304;10.576;2023-05-23T08:35:09;18.70;99.90
11122;DHT22;5615;49.304;10.576;2023-05-23T08:37:37;18.70;99.90
11122;DHT22;5615;49.304;10.576;2023-05-23T08:40:07;18.60;99.90
11122;DHT22;5615;49.304;10.576;2023-05-23T08:42:39;18.70;99.90
11122;DHT22;5615;49.304;10.576;2023-05-23T08:45:07;18.80;99.90
11122;DHT22;5615;49.304;10.576;2023-05-23T08:47:35;18.40;99.90
11122;DHT22;5615;49.304;10.576;2023-05-23T08:50:04;18.80;99.90
11122;DHT22;5615;49.304;10.576;2023-05-23T08:52:32;19.20;99.90
11122;DHT22;5615;49.304;10.576;2023-05-23T08:55:01;18.90;99.90
11122;DHT22;5615;49.304;10.576;2023-05-23T08:57:28;18.70;99.90
11122;DHT22;5615;49.304;10.576;2023-05-23T08:59:55;18.30;99.90
11122;DHT22;5615;49.304;10.576;2023-05-23T09:02:23;18.30;99.90
11122;DHT22;5615;49.304;10.576;2023-05-23T09:04:50;18.10;99.90
11122;DHT22;5615;49.304;10.576;2023-05-23T09:07:18;18.30;99.90
11122;DHT22;5615;49.304;10.576;2023-05-23T09:09:44;18.20;99.90
11122;DHT22;5615;49.304;10.576;2023-05-23T09:12:13;18.20;99.90
11122;DHT22;5615;49.304;10.576;2023-05-23T09:14:40;18.10;99.90
11122;DHT22;5615;49.304;10.576;2023-05-23T09:17:14;18.10;99.90
11122;DHT22;5615;49.304;10.576;2023-05-23T09:19:41;18.10;99.90
11122;DHT22;5615;49.304;10.576;2023-05-23T09:22:07;18.00;99.90
11122;DHT22;5615;49.304;10.576;2023-05-23T09:24:34;17.70;99.90
11122;DHT22;5615;49.304;10.576;2023-05-23T09:27:01;17.80;99.90
11122;DHT22;5615;49.304;10.576;2023-05-23T09:29:29;17.90;99.90
11122;DHT22;5615;49.304;10.576;2023-05-23T09:31:59;17.70;99.90
11122;DHT22;5615;49.304;10.576;2023-05-23T09:34:27;18.00;99.90
11122;DHT22;5615;49.304;10.576;2023-05-23T09:36:54;17.80;99.90
11122;DHT22;5615;49.304;10.576;2023-05-23T09:39:21;17.70;99.90
11122;DHT22;5615;49.304;10.576;2023-05-23T09:41:48;18.00;99.90
11122;DHT22;5615;49.304;10.576;2023-05-23T09:44:21;18.10;99.90
11122;DHT22;5615;49.304;10.576;2023-05-23T09:46:51;18.30;99.90
11122;DHT22;5615;49.304;10.576;2023-05-23T09:49:18;18.20;99.90
11122;DHT22;5615;49.304;10.576;2023-05-23T09:51:56;18.20;99.90
11122;DHT22;5615;49.304;10.576;2023-05-23T09:54:23;18.20;99.90
11122;DHT22;5615;49.304;10.576;2023-05-23T09:56:52;18.10;99.90
11122;DHT22;5615;49.304;10.576;2023-05-23T09:59:20;18.10;99.90
11122;DHT22;5615;49.304;10.576;2023-05-23T10:01:51;18.10;99.90
11122;DHT22;5615;49.304;10.576;2023-05-23T10:04:21;18.60;99.90
11122;DHT22;5615;49.304;10.576;2023-05-23T10:06:50;18.60;99.90
11122;DHT22;5615;49.304;10.576;2023-05-23T10:09:20;18.40;99.90
11122;DHT22;5615;49.304;10.576;2023-05-23T10:14:54;18.40;99.90
11122;DHT22;5615;49.304;10.576;2023-05-23T10:17:27;18.20;99.90
11122;DHT22;5615;49.304;10.576;2023-05-23T10:20:00;18.40;99.90
11122;DHT22;5615;49.304;10.576;2023-05-23T10:22:27;18.30;99.90
11122;DHT22;5615;49.304;10.576;2023-05-23T10:24:54;18.40;99.90
11122;DHT22;5615;49.304;10.576;2023-05-23T10:27:21;18.70;99.90
11122;DHT22;5615;49.304;10.576;2023-05-23T10:29:48;18.20;99.90
11122;DHT22;5615;49.304;10.576;2023-05-23T10:32:15;19.10;99.90
11122;DHT22;5615;49.304;10.576;2023-05-23T10:34:53;18.80;99.90
11122;DHT22;5615;49.304;10.576;2023-05-23T10:37:27;19.20;99.90
11122;DHT22;5615;49.304;10.576;2023-05-23T10:39:59;19.00;99.90
11122;DHT22;5615;49.304;10.576;2023-05-23T10:42:37;19.30;99.90
11122;DHT22;5615;49.304;10.576;2023-05-23T10:45:14;19.70;99.90
11122;DHT22;5615;49.304;10.576;2023-05-23T10:47:40;19.60;99.90
11122;DHT22;5615;49.304;10.576;2023-05-23T10:50:11;19.20;99.90
11122;DHT22;5615;49.304;10.576;2023-05-23T10:52:38;19.30;99.90
11122;DHT22;5615;49.304;10.576;2023-05-23T10:55:11;19.40;99.90
11122;DHT22;5615;49.304;10.576;2023-05-23T10:57:38;19.60;99.90
11122;DHT22;5615;49.304;10.576;2023-05-23T11:00:12;20.00;99.90
11122;DHT22;5615;49.304;10.576;2023-05-23T11:02:46;20.00;99.90
11122;DHT22;5615;49.304;10.576;2023-05-23T11:05:20;20.60;99.90
11122;DHT22;5615;49.304;10.576;2023-05-23T11:08:06;20.30;99.90
11122;DHT22;5615;49.304;10.576;2023-05-23T11:10:50;20.60;99.90
11122;DHT22;5615;49.304;10.576;2023-05-23T11:13:18;21.30;99.90
11122;DHT22;5615;49.304;10.576;2023-05-23T11:15:46;22.00;99.90
11122;DHT22;5615;49.304;10.576;2023-05-23T11:18:20;22.00;99.90
11122;DHT22;5615;49.304;10.576;2023-05-23T11:20:49;21.20;99.90
11122;DHT22;5615;49.304;10.576;2023-05-23T11:23:17;20.50;99.90
11122;DHT22;5615;49.304;10.576;2023-05-23T11:25:45;20.10;99.90
11122;DHT22;5615;49.304;10.576;2023-05-23T11:28:13;19.80;99.90
11122;DHT22;5615;49.304;10.576;2023-05-23T11:30:40;20.00;99.90
11122;DHT22;5615;49.304;10.576;2023-05-23T11:33:08;19.60;99.90
11122;DHT22;5615;49.304;10.576;2023-05-23T11:35:38;20.00;99.90
11122;DHT22;5615;49.304;10.576;2023-05-23T11:38:07;20.00;99.90
11122;DHT22;5615;49.304;10.576;2023-05-23T11:40:35;19.90;99.90
11122;DHT22;5615;49.304;10.576;2023-05-23T11:43:03;20.00;99.90
11122;DHT22;5615;49.304;10.576;2023-05-23T11:45:31;21.50;99.90
11122;DHT22;5615;49.304;10.576;2023-05-23T11:47:58;22.00;99.90
11122;DHT22;5615;49.304;10.576;2023-05-23T11:50:25;22.30;99.90
11122;DHT22;5615;49.304;10.576;2023-05-23T11:52:53;22.60;99.90
11122;DHT22;5615;49.304;10.576;2023-05-23T11:55:22;21.80;99.90
11122;DHT22;5615;49.304;10.576;2023-05-23T11:57:49;20.70;99.90
11122;DHT22;5615;49.304;10.576;2023-05-23T12:00:17;20.00;99.90
11122;DHT22;5615;49.304;10.576;2023-05-23T12:02:45;19.90;99.90
11122;DHT22;5615;49.304;10.576;2023-05-23T12:05:13;19.90;99.90
11122;DHT22;5615;49.304;10.576;2023-05-23T12:07:40;19.60;99.90
11122;DHT22;5615;49.304;10.576;2023-05-23T12:10:08;19.80;99.90
11122;DHT22;5615;49.304;10.576;2023-05-23T12:12:36;19.70;99.90
11122;DHT22;5615;49.304;10.576;2023-05-23T12:15:04;19.60;99.90
11122;DHT22;5615;49.304;10.576;2023-05-23T12:17:31;19.90;99.90
11122;DHT22;5615;49.304;10.576;2023-05-23T12:19:58;19.60;99.90
11122;DHT22;5615;49.304;10.576;2023-05-23T12:22:27;19.40;99.90
11122;DHT22;5615;49.304;10.576;2023-05-23T12:24:54;19.50;99.90
11122;DHT22;5615;49.304;10.576;2023-05-23T12:27:26;19.40;99.90
11122;DHT22;5615;49.304;10.576;2023-05-23T12:30:06;19.40;99.90
11122;DHT22;5615;49.304;10.576;2023-05-23T12:32:33;19.60;99.90
11122;DHT22;5615;49.304;10.576;2023-05-23T12:35:00;19.50;99.90
11122;DHT22;5615;49.304;10.576;2023-05-23T12:37:29;19.80;99.90
11122;DHT22;5615;49.304;10.576;2023-05-23T12:39:55;20.10;99.90
11122;DHT22;5615;49.304;10.576;2023-05-23T12:42:22;20.40;99.90
11122;DHT22;5615;49.304;10.576;2023-05-23T12:44:50;19.90;99.90
11122;DHT22;5615;49.304;10.576;2023-05-23T12:47:18;20.10;99.90
11122;DHT22;5615;49.304;10.576;2023-05-23T12:49:45;19.60;99.90
11122;DHT22;5615;49.304;10.576;2023-05-23T12:52:12;19.50;99.90
11122;DHT22;5615;49.304;10.576;2023-05-23T12:54:39;19.20;99.90
11122;DHT22;5615;49.304;10.576;2023-05-23T12:57:05;18.60;99.90
11122;DHT22;5615;49.304;10.576;2023-05-23T12:59:32;18.40;99.90
11122;DHT22;5615;49.304;10.576;2023-05-23T13:01:59;18.40;99.90
11122;DHT22;5615;49.304;10.576;2023-05-23T13:04:28;18.50;99.90
11122;DHT22;5615;49.304;10.576;2023-05-23T13:06:55;18.60;99.90
11122;DHT22;5615;49.304;10.576;2023-05-23T13:09:21;18.90;99.90
11122;DHT22;5615;49.304;10.576;2023-05-23T13:11:48;19.10;99.90
11122;DHT22;5615;49.304;10.576;2023-05-23T13:14:14;18.90;99.90
11122;DHT22;5615;49.304;10.576;2023-05-23T13:16:41;18.70;99.90
11122;DHT22;5615;49.304;10.576;2023-05-23T13:19:09;18.90;99.90
11122;DHT22;5615;49.304;10.576;2023-05-23T13:21:37;18.80;99.90
11122;DHT22;5615;49.304;10.576;2023-05-23T13:24:05;18.60;99.90
11122;DHT22;5615;49.304;10.576;2023-05-23T13:26:33;18.40;99.90
11122;DHT22;5615;49.304;10.576;2023-05-23T13:28:59;18.40;99.90
11122;DHT22;5615;49.304;10.576;2023-05-23T13:31:26;18.50;99.90
11122;DHT22;5615;49.304;10.576;2023-05-23T13:33:53;18.70;99.90
11122;DHT22;5615;49.304;10.576;2023-05-23T13:36:20;19.10;99.90
11122;DHT22;5615;49.304;10.576;2023-05-23T13:38:48;19.20;99.90
11122;DHT22;5615;49.304;10.576;2023-05-23T13:41:14;19.80;99.90
11122;DHT22;5615;49.304;10.576;2023-05-23T13:43:41;19.90;99.90
11122;DHT22;5615;49.304;10.576;2023-05-23T13:46:08;21.10;99.90
11122;DHT22;5615;49.304;10.576;2023-05-23T13:48:34;21.70;99.90
11122;DHT22;5615;49.304;10.576;2023-05-23T13:51:01;21.30;99.90
11122;DHT22;5615;49.304;10.576;2023-05-23T13:53:27;20.30;99.90
11122;DHT22;5615;49.304;10.576;2023-05-23T13:55:55;20.40;99.90
11122;DHT22;5615;49.304;10.576;2023-05-23T13:58:22;20.00;99.90
11122;DHT22;5615;49.304;10.576;2023-05-23T14:00:49;20.40;99.90
11122;DHT22;5615;49.304;10.576;2023-05-23T14:03:16;20.30;99.90
11122;DHT22;5615;49.304;10.576;2023-05-23T14:05:43;20.10;99.90
11122;DHT22;5615;49.304;10.576;2023-05-23T14:08:10;20.70;99.90
11122;DHT22;5615;49.304;10.576;2023-05-23T14:10:38;20.70;99.90
11122;DHT22;5615;49.304;10.576;2023-05-23T14:13:06;20.20;99.90
11122;DHT22;5615;49.304;10.576;2023-05-23T14:15:33;19.80;99.90
11122;DHT22;5615;49.304;10.576;2023-05-23T14:18:00;19.60;99.90
11122;DHT22;5615;49.304;10.576;2023-05-23T14:20:26;19.40;99.90
11122;DHT22;5615;49.304;10.576;2023-05-23T14:22:54;19.20;99.90
11122;DHT22;5615;49.304;10.576;2023-05-23T14:25:21;18.90;99.90
11122;DHT22;5615;49.304;10.576;2023-05-23T14:27:47;19.20;99.90
11122;DHT22;5615;49.304;10.576;2023-05-23T14:30:15;19.20;99.90
11122;DHT22;5615;49.304;10.576;2023-05-23T14:32:42;19.10;99.90
11122;DHT22;5615;49.304;10.576;2023-05-23T14:35:09;19.80;99.90
11122;DHT22;5615;49.304;10.576;2023-05-23T14:37:36;20.00;99.90
11122;DHT22;5615;49.304;10.576;2023-05-23T14:40:03;20.40;99.90
11122;DHT22;5615;49.304;10.576;2023-05-23T14:42:31;20.80;99.90
11122;DHT22;5615;49.304;10.576;2023-05-23T14:44:57;21.10;99.90
11122;DHT22;5615;49.304;10.576;2023-05-23T14:47:25;21.70;99.90
11122;DHT22;5615;49.304;10.576;2023-05-23T14:49:52;21.90;99.90
11122;DHT22;5615;49.304;10.576;2023-05-23T14:52:19;21.70;99.90
11122;DHT22;5615;49.304;10.576;2023-05-23T14:54:45;21.50;99.90
11122;DHT22;5615;49.304;10.576;2023-05-23T14:57:12;21.40;99.90
11122;DHT22;5615;49.304;10.576;2023-05-23T14:59:38;20.50;99.90
11122;DHT22;5615;49.304;10.576;2023-05-23T15:02:05;20.80;99.90
11122;DHT22;5615;49.304;10.576;2023-05-23T15:04:34;20.40;99.90
11122;DHT22;5615;49.304;10.576;2023-05-23T15:07:00;20.40;99.90
11122;DHT22;5615;49.304;10.576;2023-05-23T15:09:28;20.70;99.90
11122;DHT22;5615;49.304;10.576;2023-05-23T15:11:54;22.20;99.90
11122;DHT22;5615;49.304;10.576;2023-05-23T15:14:21;21.60;99.90
11122;DHT22;5615;49.304;10.576;2023-05-23T15:16:53;21.40;99.90
11122;DHT22;5615;49.304;10.576;2023-05-23T15:19:20;21.20;99.90
11122;DHT22;5615;49.304;10.576;2023-05-23T15:21:47;21.50;99.90
11122;DHT22;5615;49.304;10.576;2023-05-23T15:24:14;21.70;99.90
11122;DHT22;5615;49.304;10.576;2023-05-23T15:26:41;20.80;99.90
11122;DHT22;5615;49.304;10.576;2023-05-23T15:29:07;23.00;99.90
11122;DHT22;5615;49.304;10.576;2023-05-23T15:31:34;22.50;99.90
11122;DHT22;5615;49.304;10.576;2023-05-23T15:34:00;22.10;99.90
11122;DHT22;5615;49.304;10.576;2023-05-23T15:36:27;22.30;99.90